Time;durP1;ratioP1;P1;durP2;ratioP2;P2;SDS_P1;SDS_P2;PMS_P1;PMS_P2;Temp;Humidity;BMP_temperature;BMP_pressure;BME280_temperature;BME280_humidity;BME280_pressure;Samples;Min_cycle;Max_cycle;Signal;HPM_P1;HPM_P2
2023/12/06 00:01:56;;;;;;;14.10;10.20;;;6.80;99.90;;;;;;4943922;28;20534;-26
2023/12/06 00:04:27;;;;;;;20.90;11.43;;;6.90;99.90;;;;;;4944517;28;20916;-30
2023/12/06 00:06:53;;;;;;;17.90;11.17;;;6.90;99.90;;;;;;4945060;28;20449;-30
2023/12/06 00:09:21;;;;;;;16.43;10.40;;;6.90;99.90;;;;;;4943597;29;20946;-31
2023/12/06 00:11:47;;;;;;;16.70;10.57;;;6.90;99.90;;;;;;4959541;28;20416;-29
2023/12/06 00:14:16;;;;;;;16.63;11.33;;;6.90;99.90;;;;;;4943338;28;20526;-33
2023/12/06 00:16:44;;;;;;;15.90;11.00;;;6.90;99.90;;;;;;4943291;28;20978;-29
2023/12/06 00:19:14;;;;;;;15.63;10.33;;;6.90;99.90;;;;;;4959427;28;20411;-31
2023/12/06 00:21:41;;;;;;;17.37;10.63;;;6.90;99.90;;;;;;4959414;28;20420;-25
2023/12/06 00:24:08;;;;;;;14.40;11.23;;;6.80;99.90;;;;;;4945078;28;20990;-28
2023/12/06 00:26:39;;;;;;;18.10;11.20;;;6.80;99.90;;;;;;4945040;28;20420;-29
2023/12/06 00:29:08;;;;;;;16.20;10.80;;;6.80;99.90;;;;;;4959563;28;20540;-30
2023/12/06 00:31:38;;;;;;;17.80;11.13;;;6.80;99.90;;;;;;4959290;28;20530;-25
2023/12/06 00:34:04;;;;;;;18.97;11.20;;;6.80;99.90;;;;;;4943468;28;20444;-31
2023/12/06 00:36:38;;;;;;;16.07;11.73;;;6.80;99.90;;;;;;4958844;28;20420;-31
2023/12/06 00:39:04;;;;;;;19.67;12.90;;;6.90;99.90;;;;;;4959089;28;20515;-28
2023/12/06 00:41:33;;;;;;;18.97;12.27;;;6.80;99.90;;;;;;4959252;28;20465;-25
2023/12/06 00:44:01;;;;;;;17.20;11.73;;;6.80;99.90;;;;;;4978305;28;20589;-33
2023/12/06 00:46:30;;;;;;;22.50;13.60;;;6.80;99.90;;;;;;4963992;28;20441;-31
2023/12/06 00:48:58;;;;;;;19.27;13.33;;;6.80;99.90;;;;;;4959597;28;20506;-29
2023/12/06 00:51:30;;;;;;;21.10;13.47;;;6.80;99.90;;;;;;4944495;29;20432;-31
2023/12/06 00:53:58;;;;;;;21.37;12.50;;;6.80;99.90;;;;;;4944967;28;20435;-31
2023/12/06 00:56:27;;;;;;;20.17;12.50;;;6.80;99.90;;;;;;4959668;28;20546;-34
2023/12/06 00:58:53;;;;;;;21.87;14.17;;;6.80;99.90;;;;;;4945590;28;20438;-28
2023/12/06 01:01:22;;;;;;;19.30;13.13;;;6.80;99.90;;;;;;4945102;28;20808;-28
2023/12/06 01:03:48;;;;;;;18.70;12.27;;;6.80;99.90;;;;;;4945109;28;21038;-27
2023/12/06 01:06:14;;;;;;;18.90;13.57;;;6.80;99.90;;;;;;4944567;29;20803;-27
2023/12/06 01:08:42;;;;;;;25.33;14.87;;;6.80;99.90;;;;;;4943013;29;20471;-31
2023/12/06 01:11:13;;;;;;;25.40;15.20;;;6.80;99.90;;;;;;4944391;28;20431;-30
2023/12/06 01:13:39;;;;;;;22.83;14.27;;;6.80;99.90;;;;;;4954950;28;20450;-26
2023/12/06 01:16:08;;;;;;;23.43;14.30;;;6.80;99.90;;;;;;4963938;28;20438;-33
2023/12/06 01:18:36;;;;;;;25.13;15.40;;;6.70;99.90;;;;;;4962679;28;20466;-30
2023/12/06 01:21:02;;;;;;;22.40;13.73;;;6.80;99.90;;;;;;4959624;28;20423;-28
2023/12/06 01:23:31;;;;;;;22.13;15.20;;;6.80;99.90;;;;;;4952130;28;20991;-30
2023/12/06 01:25:59;;;;;;;24.70;16.57;;;6.80;99.90;;;;;;4961999;28;20481;-28
2023/12/06 01:28:28;;;;;;;25.53;16.43;;;6.80;99.90;;;;;;4959279;28;21490;-29
2023/12/06 01:30:54;;;;;;;29.80;16.80;;;6.80;99.90;;;;;;4954705;28;21237;-28
2023/12/06 01:33:22;;;;;;;26.30;16.73;;;6.80;99.90;;;;;;4978695;28;20423;-28
2023/12/06 01:35:51;;;;;;;27.53;16.80;;;6.80;99.90;;;;;;4954689;28;20423;-32
2023/12/06 01:38:17;;;;;;;27.37;16.37;;;6.80;99.90;;;;;;4944454;28;20431;-30
2023/12/06 01:40:44;;;;;;;29.80;17.47;;;6.70;99.90;;;;;;4948712;28;20513;-28
2023/12/06 01:43:15;;;;;;;25.83;16.03;;;6.70;99.90;;;;;;4977361;28;20492;-30
2023/12/06 01:45:41;;;;;;;30.40;17.70;;;6.70;99.90;;;;;;4964553;28;20505;-27
2023/12/06 01:48:08;;;;;;;27.97;16.87;;;6.80;99.90;;;;;;4963365;28;20592;-33
2023/12/06 01:50:37;;;;;;;29.83;17.27;;;6.80;99.90;;;;;;4964809;28;20465;-28
2023/12/06 01:53:04;;;;;;;30.87;19.17;;;6.70;99.90;;;;;;4978514;28;20837;-30
2023/12/06 01:55:31;;;;;;;31.00;18.30;;;6.70;99.90;;;;;;4963827;28;20446;-32
2023/12/06 01:58:01;;;;;;;30.17;18.67;;;6.70;99.90;;;;;;4962159;28;20933;-29
2023/12/06 02:00:28;;;;;;;27.60;16.93;;;6.70;99.90;;;;;;4979483;28;21043;-30
2023/12/06 02:03:00;;;;;;;28.73;17.37;;;6.70;99.90;;;;;;4980456;28;20426;-32
2023/12/06 02:05:26;;;;;;;29.27;16.83;;;6.70;99.90;;;;;;4966172;28;20501;-30
2023/12/06 02:07:54;;;;;;;33.60;18.47;;;6.70;99.90;;;;;;4966117;28;20497;-29
2023/12/06 02:10:24;;;;;;;29.50;18.27;;;6.70;99.90;;;;;;4982059;28;20486;-28
2023/12/06 02:12:50;;;;;;;32.80;18.30;;;6.70;99.90;;;;;;4964896;28;20454;-30
2023/12/06 02:15:21;;;;;;;33.53;20.27;;;6.70;99.90;;;;;;4974957;28;20522;-29
2023/12/06 02:17:52;;;;;;;36.23;20.00;;;6.70;99.90;;;;;;4964181;28;20437;-28
2023/12/06 02:20:24;;;;;;;30.53;19.43;;;6.70;99.90;;;;;;4967802;28;20466;-29
2023/12/06 02:22:53;;;;;;;32.00;19.17;;;6.70;99.90;;;;;;4950702;28;20426;-29
2023/12/06 02:25:22;;;;;;;36.03;19.50;;;6.70;99.90;;;;;;4931504;29;20531;-30
2023/12/06 02:27:52;;;;;;;30.30;20.43;;;6.70;99.90;;;;;;4949443;29;20471;-30
2023/12/06 02:30:24;;;;;;;34.00;20.27;;;6.70;99.90;;;;;;4950229;29;21270;-29
2023/12/06 02:32:49;;;;;;;33.00;19.10;;;6.70;99.90;;;;;;4949464;29;21006;-31
2023/12/06 02:35:32;;;;;;;33.37;19.23;;;6.70;99.90;;;;;;4947420;28;20558;-31
2023/12/06 02:38:00;;;;;;;32.03;19.10;;;6.70;99.90;;;;;;4962341;28;20508;-28
2023/12/06 02:40:29;;;;;;;37.00;21.27;;;6.70;99.90;;;;;;4946684;28;20426;-30
2023/12/06 02:42:55;;;;;;;34.00;20.00;;;6.70;99.90;;;;;;4944315;29;20541;-27
2023/12/06 02:45:30;;;;;;;35.33;21.43;;;6.70;99.90;;;;;;4960424;28;20466;-32
2023/12/06 02:47:57;;;;;;;34.50;19.13;;;6.70;99.90;;;;;;4945682;28;20895;-33
2023/12/06 02:50:23;;;;;;;37.87;21.23;;;6.70;99.90;;;;;;4959877;28;20428;-31
2023/12/06 02:52:49;;;;;;;33.37;20.90;;;6.70;99.90;;;;;;4944403;28;20784;-27
2023/12/06 02:55:15;;;;;;;35.50;22.50;;;6.70;99.90;;;;;;4959985;28;20612;-32
2023/12/06 02:57:41;;;;;;;32.30;20.57;;;6.60;99.90;;;;;;4959571;28;20494;-27
2023/12/06 03:00:08;;;;;;;36.27;21.87;;;6.70;99.90;;;;;;4959390;28;20825;-32
2023/12/06 03:02:39;;;;;;;37.10;22.90;;;6.70;99.90;;;;;;4944930;28;20418;-28
2023/12/06 03:05:06;;;;;;;31.07;20.63;;;6.70;99.90;;;;;;4943347;28;20974;-32
2023/12/06 03:07:34;;;;;;;34.17;20.50;;;6.70;99.90;;;;;;4944919;28;20455;-27
2023/12/06 03:10:00;;;;;;;29.70;19.40;;;6.70;99.90;;;;;;4957471;28;20474;-27
2023/12/06 03:12:31;;;;;;;33.10;21.37;;;6.60;99.90;;;;;;4978508;28;20785;-33
2023/12/06 03:14:57;;;;;;;34.00;21.33;;;6.70;99.90;;;;;;4964672;28;20862;-35
2023/12/06 03:17:25;;;;;;;34.20;21.07;;;6.60;99.90;;;;;;4945415;28;20560;-31
2023/12/06 03:19:51;;;;;;;32.93;21.27;;;6.70;99.90;;;;;;4943769;28;20564;-29
2023/12/06 03:22:19;;;;;;;33.83;21.17;;;6.60;99.90;;;;;;4946391;28;20438;-31
2023/12/06 03:24:45;;;;;;;31.13;21.37;;;6.60;99.90;;;;;;4964032;28;20447;-29
2023/12/06 03:27:14;;;;;;;34.60;22.10;;;6.70;99.90;;;;;;4964448;28;20458;-26
2023/12/06 03:29:41;;;;;;;30.23;20.67;;;6.60;99.90;;;;;;4964935;28;20533;-28
2023/12/06 03:32:09;;;;;;;28.87;20.37;;;6.60;99.90;;;;;;4964175;28;20538;-28
2023/12/06 03:34:39;;;;;;;30.03;20.00;;;6.60;99.90;;;;;;4975124;28;20449;-29
2023/12/06 03:37:05;;;;;;;34.70;21.40;;;6.60;99.90;;;;;;4979480;28;20414;-31
2023/12/06 03:39:32;;;;;;;32.93;20.83;;;6.60;99.90;;;;;;4943782;28;20435;-31
2023/12/06 03:41:59;;;;;;;30.07;20.00;;;6.60;99.90;;;;;;4944913;28;20482;-30
2023/12/06 03:44:25;;;;;;;30.30;21.00;;;6.60;99.90;;;;;;4943483;28;20952;-31
2023/12/06 03:46:59;;;;;;;30.53;19.37;;;6.60;99.90;;;;;;4954911;28;20450;-32
2023/12/06 03:49:30;;;;;;;29.27;19.30;;;6.60;99.90;;;;;;4964136;28;20426;-28
2023/12/06 03:52:01;;;;;;;30.17;20.17;;;6.60;99.90;;;;;;4965384;28;20414;-31
2023/12/06 03:54:27;;;;;;;31.20;20.67;;;6.60;99.90;;;;;;4983414;28;20977;-29
2023/12/06 03:56:55;;;;;;;28.63;19.97;;;6.60;99.90;;;;;;4968272;28;20481;-29
2023/12/06 03:59:27;;;;;;;31.00;20.40;;;6.60;99.90;;;;;;4949896;28;20521;-30
2023/12/06 04:01:56;;;;;;;29.20;20.73;;;6.60;99.90;;;;;;4963375;28;20415;-28
2023/12/06 04:04:24;;;;;;;24.50;19.33;;;6.60;99.90;;;;;;4975548;28;20446;-28
2023/12/06 04:06:50;;;;;;;33.50;19.53;;;6.60;99.90;;;;;;4947880;28;20415;-32
2023/12/06 04:09:19;;;;;;;30.00;20.60;;;6.60;99.90;;;;;;4945488;29;20431;-27
2023/12/06 04:11:45;;;;;;;32.23;21.13;;;6.60;99.90;;;;;;4964334;28;20434;-28
2023/12/06 04:14:11;;;;;;;27.50;19.87;;;6.60;99.90;;;;;;4965965;28;20812;-30
2023/12/06 04:16:40;;;;;;;29.00;20.73;;;6.60;99.90;;;;;;4964631;28;20447;-29
2023/12/06 04:19:08;;;;;;;30.53;20.23;;;6.60;99.90;;;;;;4946623;28;20427;-28
2023/12/06 04:21:38;;;;;;;28.57;19.30;;;6.60;99.90;;;;;;4946351;28;20419;-30
2023/12/06 04:24:04;;;;;;;24.97;18.30;;;6.60;99.90;;;;;;4946229;28;20446;-27
2023/12/06 04:26:30;;;;;;;29.30;19.57;;;6.60;99.90;;;;;;4946689;28;20434;-30
2023/12/06 04:28:56;;;;;;;26.93;18.83;;;6.60;99.90;;;;;;4945826;29;20479;-28
2023/12/06 04:31:22;;;;;;;26.80;18.83;;;6.60;99.90;;;;;;4944546;29;20431;-29
2023/12/06 04:33:50;;;;;;;28.20;18.90;;;6.60;99.90;;;;;;4960764;28;20446;-32
2023/12/06 04:36:16;;;;;;;25.37;17.83;;;6.60;99.90;;;;;;4946129;28;20427;-28
2023/12/06 04:38:44;;;;;;;28.60;18.77;;;6.60;99.90;;;;;;4959915;28;20475;-32
2023/12/06 04:41:10;;;;;;;28.13;20.03;;;6.60;99.90;;;;;;4944743;28;20478;-32
2023/12/06 04:43:40;;;;;;;27.23;19.90;;;6.50;99.90;;;;;;4945232;28;20486;-27
2023/12/06 04:46:08;;;;;;;26.77;17.50;;;6.60;99.90;;;;;;4960047;28;21010;-30
2023/12/06 04:48:34;;;;;;;27.03;19.00;;;6.60;99.90;;;;;;4945579;28;20459;-28
2023/12/06 04:51:00;;;;;;;27.87;19.27;;;6.50;99.90;;;;;;4945683;28;20440;-29
2023/12/06 04:53:26;;;;;;;27.80;19.53;;;6.50;99.90;;;;;;4945134;28;20618;-31
2023/12/06 04:55:53;;;;;;;25.23;17.60;;;6.50;99.90;;;;;;4945822;28;20416;-33
2023/12/06 04:58:26;;;;;;;27.10;17.63;;;6.50;99.90;;;;;;4946005;29;21021;-28
2023/12/06 05:00:52;;;;;;;27.43;18.73;;;6.50;99.90;;;;;;4944477;29;20863;-27
2023/12/06 05:03:21;;;;;;;27.57;18.80;;;6.50;99.90;;;;;;4945717;28;20415;-32
2023/12/06 05:05:49;;;;;;;27.03;19.70;;;6.50;99.90;;;;;;4943844;29;20443;-30
2023/12/06 05:08:16;;;;;;;28.60;19.47;;;6.50;99.90;;;;;;4946163;28;20471;-31
2023/12/06 05:10:47;;;;;;;23.83;17.13;;;6.50;99.90;;;;;;4944226;28;20459;-28
2023/12/06 05:13:14;;;;;;;23.50;17.67;;;6.50;99.90;;;;;;4960258;28;20537;-32
2023/12/06 05:15:43;;;;;;;27.53;18.13;;;6.50;99.90;;;;;;4945660;28;20415;-34
2023/12/06 05:18:09;;;;;;;26.07;18.40;;;6.50;99.90;;;;;;4946066;29;20443;-29
2023/12/06 05:20:37;;;;;;;25.43;16.03;;;6.60;99.90;;;;;;4945770;28;20431;-30
2023/12/06 05:23:10;;;;;;;27.90;19.40;;;6.50;99.90;;;;;;4945309;29;20286;-31
2023/12/06 05:26:07;;;;;;;25.47;17.17;;;6.50;99.90;;;;;;4943079;29;20423;-35
2023/12/06 05:28:39;;;;;;;28.90;18.87;;;6.50;99.90;;;;;;4944266;29;20960;-32
2023/12/06 05:31:05;;;;;;;22.70;16.20;;;6.50;99.90;;;;;;4944876;28;20411;-32
2023/12/06 05:33:35;;;;;;;24.63;16.10;;;6.50;99.90;;;;;;4944684;28;20447;-28
2023/12/06 05:36:02;;;;;;;23.13;17.00;;;6.50;99.90;;;;;;4944063;28;20419;-28
2023/12/06 05:38:30;;;;;;;27.27;17.67;;;6.50;99.90;;;;;;4959333;28;20459;-30
2023/12/06 05:40:59;;;;;;;26.57;18.30;;;6.50;99.90;;;;;;4946895;28;20416;-28
2023/12/06 05:43:28;;;;;;;27.00;19.00;;;6.50;99.90;;;;;;4963919;28;20458;-30
2023/12/06 05:46:00;;;;;;;26.53;19.17;;;6.50;99.90;;;;;;4964052;28;20467;-28
2023/12/06 05:48:27;;;;;;;26.50;18.07;;;6.50;99.90;;;;;;4962167;28;20886;-27
2023/12/06 05:50:53;;;;;;;25.50;16.40;;;6.50;99.90;;;;;;4959855;28;20426;-27
2023/12/06 05:53:23;;;;;;;28.03;18.17;;;6.50;99.90;;;;;;4959197;28;20426;-29
2023/12/06 05:55:49;;;;;;;26.40;18.03;;;6.50;99.90;;;;;;4944352;28;20426;-29
2023/12/06 05:58:15;;;;;;;26.10;17.07;;;6.50;99.90;;;;;;4960707;28;20450;-30
2023/12/06 06:00:41;;;;;;;25.13;17.17;;;6.50;99.90;;;;;;4978299;28;20780;-27
2023/12/06 06:03:07;;;;;;;24.30;16.67;;;6.50;99.90;;;;;;4964059;28;20426;-27
2023/12/06 06:05:37;;;;;;;30.00;18.93;;;6.50;99.90;;;;;;4964112;28;20407;-30
2023/12/06 06:08:05;;;;;;;25.93;17.40;;;6.50;99.90;;;;;;4963791;28;20494;-31
2023/12/06 06:10:31;;;;;;;25.47;17.30;;;6.50;99.90;;;;;;4963222;28;20425;-28
2023/12/06 06:12:59;;;;;;;25.53;17.73;;;6.50;99.90;;;;;;4978292;28;20832;-30
2023/12/06 06:15:25;;;;;;;23.90;16.60;;;6.50;99.90;;;;;;4961808;28;20450;-30
2023/12/06 06:17:57;;;;;;;25.90;17.40;;;6.50;99.90;;;;;;4977588;28;20426;-33
2023/12/06 06:20:23;;;;;;;25.17;17.17;;;6.50;99.90;;;;;;4963523;28;20801;-34
2023/12/06 06:22:49;;;;;;;24.10;16.87;;;6.50;99.90;;;;;;4978617;28;20426;-33
2023/12/06 06:25:15;;;;;;;25.23;17.07;;;6.50;99.90;;;;;;4963945;28;21158;-30
2023/12/06 06:27:47;;;;;;;27.27;18.80;;;6.50;99.90;;;;;;4960016;28;20475;-33
2023/12/06 06:30:14;;;;;;;22.73;16.40;;;6.50;99.90;;;;;;4958429;28;20667;-28
2023/12/06 06:32:44;;;;;;;22.57;16.50;;;6.50;99.90;;;;;;4958842;28;20510;-32
2023/12/06 06:35:13;;;;;;;26.17;17.30;;;6.50;99.90;;;;;;4942952;28;20905;-31
2023/12/06 06:37:46;;;;;;;24.37;16.83;;;6.50;99.90;;;;;;4958872;28;20419;-30
2023/12/06 06:40:14;;;;;;;22.17;16.77;;;6.50;99.90;;;;;;4958864;28;21269;-32
2023/12/06 06:42:41;;;;;;;26.50;17.77;;;6.50;99.90;;;;;;4944203;29;20427;-30
2023/12/06 06:45:11;;;;;;;22.77;16.33;;;6.50;99.90;;;;;;4943663;28;20211;-32
2023/12/06 06:47:37;;;;;;;25.07;17.27;;;6.50;99.90;;;;;;4945033;29;20487;-31
2023/12/06 06:50:07;;;;;;;23.83;18.30;;;6.50;99.90;;;;;;4944977;29;20426;-31
2023/12/06 06:52:36;;;;;;;25.07;16.97;;;6.50;99.90;;;;;;4944899;29;20645;-30
2023/12/06 06:55:07;;;;;;;23.37;17.40;;;6.50;99.90;;;;;;4944575;28;20482;-30
2023/12/06 06:57:33;;;;;;;28.50;18.37;;;6.50;99.90;;;;;;4963462;28;20454;-30
2023/12/06 06:59:59;;;;;;;25.93;18.17;;;6.50;99.90;;;;;;4962138;28;20426;-29
2023/12/06 07:02:27;;;;;;;24.00;17.20;;;6.50;99.90;;;;;;4962920;28;20446;-31
2023/12/06 07:04:53;;;;;;;23.83;17.10;;;6.50;99.90;;;;;;4978304;28;20434;-27
2023/12/06 07:07:19;;;;;;;24.60;17.90;;;6.50;99.90;;;;;;4962593;28;20598;-27
2023/12/06 07:09:45;;;;;;;23.53;16.77;;;6.50;99.90;;;;;;4962835;28;20446;-30
2023/12/06 07:12:11;;;;;;;24.23;17.43;;;6.50;99.90;;;;;;4977300;28;21000;-32
2023/12/06 07:14:37;;;;;;;27.53;18.40;;;6.50;99.90;;;;;;4960641;28;20487;-28
2023/12/06 07:17:11;;;;;;;26.37;17.83;;;6.50;99.90;;;;;;4943605;28;20429;-31
2023/12/06 07:19:37;;;;;;;27.03;18.03;;;6.50;99.90;;;;;;4944435;29;20419;-32
2023/12/06 07:22:04;;;;;;;25.97;17.20;;;6.40;99.90;;;;;;4958510;28;20428;-29
2023/12/06 07:24:33;;;;;;;23.87;17.33;;;6.50;99.90;;;;;;4944625;28;20448;-32
2023/12/06 07:27:00;;;;;;;23.67;16.37;;;6.50;99.90;;;;;;4943002;28;20467;-34
2023/12/06 07:29:31;;;;;;;25.07;17.63;;;6.50;99.90;;;;;;4958945;28;20446;-33
2023/12/06 07:32:27;;;;;;;26.07;15.97;;;6.50;99.90;;;;;;4968325;28;20453;-31
2023/12/06 07:34:56;;;;;;;25.17;17.83;;;6.50;99.90;;;;;;4968740;28;20439;-30
2023/12/06 07:37:22;;;;;;;20.30;15.80;;;6.40;99.90;;;;;;4972870;28;20455;-29
2023/12/06 07:39:48;;;;;;;22.00;16.40;;;6.50;99.90;;;;;;4949360;28;20419;-30
2023/12/06 07:42:17;;;;;;;24.70;17.27;;;6.50;99.90;;;;;;4947864;29;20796;-27
2023/12/06 07:44:44;;;;;;;25.30;16.10;;;6.50;99.90;;;;;;4946463;28;21001;-32
2023/12/06 07:47:10;;;;;;;21.60;16.73;;;6.50;99.90;;;;;;4946352;28;20877;-28
2023/12/06 07:49:41;;;;;;;22.80;16.97;;;6.40;99.90;;;;;;4960895;28;20431;-27
2023/12/06 07:52:07;;;;;;;22.13;16.10;;;6.50;99.90;;;;;;4947357;28;20458;-27
2023/12/06 07:54:39;;;;;;;19.50;15.20;;;6.50;99.90;;;;;;4947192;28;20435;-30
2023/12/06 07:57:05;;;;;;;25.67;17.53;;;6.50;99.90;;;;;;4960539;28;20802;-32
2023/12/06 07:59:35;;;;;;;22.73;16.53;;;6.50;99.90;;;;;;4962443;28;20423;-29
2023/12/06 08:02:06;;;;;;;19.53;15.23;;;6.50;99.90;;;;;;4947128;29;21261;-29
2023/12/06 08:04:33;;;;;;;20.97;15.70;;;6.50;99.90;;;;;;4945676;28;20962;-34
2023/12/06 08:07:02;;;;;;;22.63;15.30;;;6.40;99.90;;;;;;4945235;28;20443;-31
2023/12/06 08:09:29;;;;;;;20.23;14.43;;;6.50;99.90;;;;;;4960478;28;21045;-30
2023/12/06 08:11:58;;;;;;;22.20;16.52;;;6.50;99.90;;;;;;4960075;28;20918;-35
2023/12/06 08:14:26;;;;;;;19.07;15.03;;;6.40;99.90;;;;;;4945125;28;20219;-34
2023/12/06 08:16:52;;;;;;;21.03;15.80;;;6.40;99.90;;;;;;4946282;29;20419;-30
2023/12/06 08:19:19;;;;;;;21.30;14.83;;;6.50;99.90;;;;;;4946649;28;20948;-30
2023/12/06 08:21:46;;;;;;;19.87;14.13;;;6.50;99.90;;;;;;4946053;28;20419;-35
2023/12/06 08:24:15;;;;;;;22.30;16.03;;;6.50;99.90;;;;;;4945475;28;20483;-30
2023/12/06 08:26:44;;;;;;;20.93;14.67;;;6.50;99.90;;;;;;4945698;28;20490;-30
2023/12/06 08:29:12;;;;;;;18.40;14.37;;;6.50;99.90;;;;;;4959323;28;20556;-30
2023/12/06 08:31:39;;;;;;;18.67;14.43;;;6.40;99.90;;;;;;4944864;29;20447;-33
2023/12/06 08:34:05;;;;;;;19.90;13.80;;;6.50;99.90;;;;;;4951942;28;20443;-25
2023/12/06 08:36:33;;;;;;;20.27;14.50;;;6.40;99.90;;;;;;4978106;28;20970;-32
2023/12/06 08:38:59;;;;;;;21.03;14.30;;;6.50;99.90;;;;;;4976655;28;20422;-27
2023/12/06 08:41:25;;;;;;;18.00;13.43;;;6.40;99.90;;;;;;4963959;28;20441;-32
2023/12/06 08:43:51;;;;;;;18.70;13.50;;;6.50;99.90;;;;;;4963506;28;20879;-32
2023/12/06 08:46:20;;;;;;;20.63;14.13;;;6.40;99.90;;;;;;4977891;28;21265;-26
2023/12/06 08:48:48;;;;;;;21.47;15.80;;;6.50;99.90;;;;;;4964544;28;20454;-30
2023/12/06 08:51:14;;;;;;;15.30;12.53;;;6.50;99.90;;;;;;4956831;28;20466;-35
2023/12/06 08:53:40;;;;;;;17.03;13.67;;;6.50;99.90;;;;;;4946289;28;20439;-34
2023/12/06 08:56:07;;;;;;;20.33;14.57;;;6.50;99.90;;;;;;4960704;28;20411;-33
2023/12/06 08:58:39;;;;;;;19.03;13.77;;;6.50;99.90;;;;;;4945851;28;21225;-30
2023/12/06 09:01:23;;;;;;;15.53;12.37;;;6.50;99.90;;;;;;5002285;28;20488;-36
2023/12/06 09:03:49;;;;;;;14.73;12.17;;;6.50;99.90;;;;;;4981979;28;20440;-31
2023/12/06 09:06:16;;;;;;;15.90;13.10;;;6.50;99.90;;;;;;4989186;28;21068;-33
2023/12/06 09:08:44;;;;;;;14.90;12.70;;;6.50;99.90;;;;;;4997794;28;20479;-33
2023/12/06 09:11:10;;;;;;;17.77;13.00;;;6.40;99.90;;;;;;4994207;28;20424;-33
2023/12/06 09:13:38;;;;;;;17.03;12.77;;;6.50;99.90;;;;;;4987212;28;20448;-33
2023/12/06 09:16:07;;;;;;;16.50;13.30;;;6.50;99.90;;;;;;5011483;28;20416;-35
2023/12/06 09:18:33;;;;;;;17.13;13.23;;;6.50;99.90;;;;;;5002826;28;20421;-32
2023/12/06 09:20:59;;;;;;;15.10;12.73;;;6.50;99.90;;;;;;5006464;28;21075;-28
2023/12/06 09:23:28;;;;;;;13.80;12.23;;;6.50;99.90;;;;;;4995405;28;20442;-33
2023/12/06 09:25:56;;;;;;;15.77;12.60;;;6.50;99.90;;;;;;5016150;28;20918;-35
2023/12/06 09:28:22;;;;;;;15.10;11.93;;;6.50;99.90;;;;;;5011064;28;20472;-31
2023/12/06 09:30:53;;;;;;;18.70;14.40;;;6.50;99.90;;;;;;5010108;28;20991;-32
2023/12/06 09:33:20;;;;;;;16.43;12.57;;;6.50;99.90;;;;;;5031182;22;20495;-34
2023/12/06 09:35:45;;;;;;;15.40;11.53;;;6.50;99.90;;;;;;5005301;28;20518;-31
2023/12/06 09:38:12;;;;;;;18.63;13.33;;;6.50;99.90;;;;;;5033148;28;20434;-33
2023/12/06 09:40:38;;;;;;;15.40;11.60;;;6.50;99.90;;;;;;5035263;28;21001;-31
2023/12/06 09:43:04;;;;;;;14.70;12.33;;;6.50;99.90;;;;;;5026044;28;20474;-30
2023/12/06 09:45:33;;;;;;;15.40;13.10;;;6.50;99.90;;;;;;5023274;28;21345;-35
2023/12/06 09:48:00;;;;;;;17.53;12.47;;;6.50;99.90;;;;;;5036318;28;20481;-33
2023/12/06 09:50:26;;;;;;;13.67;11.90;;;6.50;99.90;;;;;;4985301;28;20451;-37
2023/12/06 09:52:55;;;;;;;15.00;12.03;;;6.50;99.90;;;;;;5030338;28;20420;-38
2023/12/06 09:55:26;;;;;;;14.93;12.23;;;6.50;99.90;;;;;;4997761;28;20444;-33
2023/12/06 09:57:53;;;;;;;16.07;12.23;;;6.50;99.90;;;;;;5018650;28;20512;-33
2023/12/06 10:00:20;;;;;;;13.30;11.67;;;6.50;99.90;;;;;;5016658;28;20452;-31
2023/12/06 10:02:49;;;;;;;16.67;12.30;;;6.50;99.90;;;;;;4978760;28;20549;-29
2023/12/06 10:05:15;;;;;;;16.23;12.47;;;6.50;99.90;;;;;;5019602;28;20443;-29
2023/12/06 10:07:42;;;;;;;15.57;12.13;;;6.50;99.90;;;;;;5026061;28;20554;-38
2023/12/06 10:10:20;;;;;;;14.60;11.40;;;6.50;99.90;;;;;;4983188;28;20544;-32
2023/12/06 10:12:58;;;;;;;18.43;12.63;;;6.50;99.90;;;;;;5029806;28;20435;-34
2023/12/06 10:15:35;;;;;;;14.07;11.30;;;6.50;99.90;;;;;;5029276;28;20431;-36
2023/12/06 10:18:01;;;;;;;14.37;12.17;;;6.50;99.90;;;;;;5001326;28;20447;-33
2023/12/06 10:20:27;;;;;;;13.33;10.63;;;6.50;99.90;;;;;;5003959;28;20416;-38
2023/12/06 10:22:53;;;;;;;14.60;12.37;;;6.50;99.90;;;;;;5027272;28;20450;-33
2023/12/06 10:25:19;;;;;;;12.27;10.63;;;6.50;99.90;;;;;;5021476;28;20475;-39
2023/12/06 10:27:46;;;;;;;14.10;10.57;;;6.50;99.90;;;;;;5031490;28;21310;-35
2023/12/06 10:30:22;;;;;;;14.27;11.20;;;6.50;99.90;;;;;;4997796;28;21008;-36
2023/12/06 10:32:50;;;;;;;12.80;10.80;;;6.50;99.90;;;;;;5019944;28;20435;-33
2023/12/06 10:35:19;;;;;;;16.80;12.30;;;6.50;99.90;;;;;;5013131;28;20551;-36
2023/12/06 10:37:48;;;;;;;12.70;11.13;;;6.50;99.90;;;;;;5033213;28;20964;-36
2023/12/06 10:40:14;;;;;;;12.27;10.33;;;6.50;99.90;;;;;;5032362;28;20442;-31
2023/12/06 10:42:51;;;;;;;11.73;10.53;;;6.60;99.90;;;;;;5011758;28;21145;-30
2023/12/06 10:45:20;;;;;;;13.17;10.80;;;6.50;99.90;;;;;;5035785;28;20469;-33
2023/12/06 10:47:47;;;;;;;12.80;11.20;;;6.50;99.90;;;;;;5009550;28;20475;-34
2023/12/06 10:50:15;;;;;;;14.17;10.37;;;6.60;99.90;;;;;;5034304;28;20537;-35
2023/12/06 10:52:43;;;;;;;15.43;11.43;;;6.60;99.90;;;;;;5012965;28;20414;-33
2023/12/06 10:55:10;;;;;;;12.83;10.47;;;6.60;99.90;;;;;;5024135;28;20435;-39
2023/12/06 10:57:41;;;;;;;14.40;11.50;;;6.50;99.90;;;;;;5016915;28;20427;-32
2023/12/06 11:00:08;;;;;;;14.23;10.93;;;6.50;99.90;;;;;;5005839;28;20990;-31
2023/12/06 11:02:34;;;;;;;15.50;10.93;;;6.60;99.90;;;;;;5028997;28;20427;-33
2023/12/06 11:05:05;;;;;;;13.67;11.10;;;6.60;99.90;;;;;;5017220;28;20458;-36
2023/12/06 11:07:33;;;;;;;13.97;11.20;;;6.60;99.90;;;;;;5011396;28;20549;-33
2023/12/06 11:10:10;;;;;;;13.07;11.00;;;6.60;99.90;;;;;;5027754;28;20448;-30
2023/12/06 11:12:47;;;;;;;13.47;11.70;;;6.60;99.90;;;;;;5034261;28;20897;-32
2023/12/06 11:15:45;;;;;;;12.50;9.90;;;6.60;99.90;;;;;;5029953;28;20496;-35
2023/12/06 11:18:18;;;;;;;11.87;10.00;;;6.60;99.90;;;;;;5027707;28;20419;-30
2023/12/06 11:20:44;;;;;;;12.93;9.93;;;6.60;99.90;;;;;;5034376;28;20415;-28
2023/12/06 11:23:16;;;;;;;11.63;9.93;;;6.60;99.90;;;;;;4994562;28;20443;-34
2023/12/06 11:25:45;;;;;;;13.50;10.60;;;6.60;99.90;;;;;;5009779;28;20911;-35
2023/12/06 11:28:20;;;;;;;12.83;10.30;;;6.60;99.90;;;;;;5035741;28;21152;-38
2023/12/06 11:30:55;;;;;;;14.90;10.33;;;6.60;99.90;;;;;;5029209;28;20422;-34
2023/12/06 11:33:34;;;;;;;13.40;10.83;;;6.60;99.90;;;;;;5025333;28;20471;-33
2023/12/06 11:36:03;;;;;;;14.83;10.60;;;6.60;99.90;;;;;;5015999;28;20456;-34
2023/12/06 11:38:33;;;;;;;11.97;10.37;;;6.60;99.90;;;;;;5013015;28;20787;-34
2023/12/06 11:41:00;;;;;;;9.90;8.90;;;6.60;99.90;;;;;;5018069;28;20545;-37
2023/12/06 11:43:40;;;;;;;13.60;10.00;;;6.60;99.90;;;;;;5029530;28;20833;-36
2023/12/06 11:46:14;;;;;;;14.70;10.40;;;6.60;99.90;;;;;;5001007;28;20447;-33
2023/12/06 11:48:45;;;;;;;11.27;10.13;;;6.60;99.90;;;;;;5027346;28;20467;-34
2023/12/06 11:51:25;;;;;;;11.00;9.27;;;6.60;99.90;;;;;;5018280;28;20424;-34
2023/12/06 11:53:52;;;;;;;10.87;9.70;;;6.60;99.90;;;;;;5028890;28;20449;-34
2023/12/06 11:56:29;;;;;;;13.07;10.70;;;6.60;99.90;;;;;;5035986;28;20428;-37
2023/12/06 11:58:58;;;;;;;14.27;10.37;;;6.60;99.90;;;;;;5024595;28;20566;-38
2023/12/06 12:01:25;;;;;;;11.40;9.80;;;6.60;99.90;;;;;;5002785;28;20435;-33
2023/12/06 12:03:54;;;;;;;11.13;9.40;;;6.60;99.90;;;;;;5035786;28;20451;-35
2023/12/06 12:06:20;;;;;;;11.50;10.20;;;6.60;99.90;;;;;;5032806;28;20423;-36
2023/12/06 12:08:48;;;;;;;13.57;10.10;;;6.60;99.90;;;;;;5010262;28;20483;-36
2023/12/06 12:11:22;;;;;;;12.87;9.30;;;6.70;99.90;;;;;;5017317;28;20441;-35
2023/12/06 12:13:48;;;;;;;12.43;10.13;;;6.60;99.90;;;;;;5004636;28;20553;-32
2023/12/06 12:16:19;;;;;;;13.73;10.40;;;6.60;99.90;;;;;;5024154;28;20443;-36
2023/12/06 12:19:03;;;;;;;11.13;9.93;;;6.70;99.90;;;;;;5031321;28;20452;-29
2023/12/06 12:21:41;;;;;;;13.33;9.33;;;6.70;99.90;;;;;;5018298;28;20447;-31
2023/12/06 12:24:12;;;;;;;10.73;9.53;;;6.70;99.90;;;;;;5036728;28;20644;-34
2023/12/06 12:26:42;;;;;;;11.03;9.77;;;6.70;99.90;;;;;;5017398;28;20443;-34
2023/12/06 12:29:16;;;;;;;13.00;9.80;;;6.70;99.90;;;;;;5005733;28;21116;-30
2023/12/06 12:31:49;;;;;;;13.77;9.57;;;6.70;99.90;;;;;;5017791;28;20518;-32
2023/12/06 12:34:21;;;;;;;14.50;10.23;;;6.70;99.90;;;;;;5025923;28;20462;-31
2023/12/06 12:36:47;;;;;;;15.00;10.87;;;6.70;99.90;;;;;;5028760;28;20958;-33
2023/12/06 12:39:19;;;;;;;13.23;10.00;;;6.70;99.90;;;;;;4975119;28;20507;-32
2023/12/06 12:41:45;;;;;;;13.60;11.23;;;6.70;99.90;;;;;;5013909;28;20457;-32
2023/12/06 12:44:11;;;;;;;14.37;10.13;;;6.70;99.90;;;;;;5026815;28;20458;-36
2023/12/06 12:46:37;;;;;;;13.03;9.50;;;6.70;99.90;;;;;;5015890;28;20428;-35